createdAt,value
2023-05-15T00:00:21.132Z,0.00
2023-05-15T00:01:21.123Z,0.00
2023-05-15T00:02:21.259Z,0.00
2023-05-15T00:03:21.346Z,0.00
2023-05-15T00:04:21.143Z,0.00
2023-05-15T00:05:21.116Z,0.00
2023-05-15T00:06:21.076Z,0.00
2023-05-15T00:07:21.083Z,0.00
2023-05-15T00:08:21.122Z,0.00
2023-05-15T00:09:21.038Z,0.00
2023-05-15T00:10:21.054Z,0.00
2023-05-15T00:11:21.020Z,0.00
2023-05-15T00:12:21.004Z,0.00
2023-05-15T00:13:21.043Z,0.00
2023-05-15T00:14:20.985Z,0.00
2023-05-15T00:15:20.980Z,0.00
2023-05-15T00:16:21.079Z,0.00
2023-05-15T00:17:20.972Z,0.00
2023-05-15T00:18:20.946Z,0.00
2023-05-15T00:19:21.030Z,0.00
2023-05-15T00:20:20.944Z,0.00
2023-05-15T00:21:20.944Z,0.00
2023-05-15T00:22:20.903Z,0.00
2023-05-15T00:23:20.899Z,0.00
2023-05-15T00:24:20.902Z,0.00
2023-05-15T00:25:21.595Z,0.00
2023-05-15T00:26:20.864Z,0.00
2023-05-15T00:27:20.847Z,0.00
2023-05-15T00:28:20.898Z,0.00
2023-05-15T00:29:20.844Z,0.00
2023-05-15T00:30:20.835Z,0.00
2023-05-15T00:31:20.842Z,0.00
2023-05-15T00:32:20.799Z,0.00
2023-05-15T00:33:20.795Z,0.00
2023-05-15T00:34:21.157Z,0.00
2023-05-15T00:35:20.820Z,0.00
2023-05-15T00:36:20.772Z,0.00
2023-05-15T00:37:20.750Z,0.00
2023-05-15T00:38:20.744Z,0.00
2023-05-15T00:39:20.751Z,0.00
2023-05-15T00:40:20.711Z,0.00
2023-05-15T00:41:20.733Z,0.00
2023-05-15T00:42:20.692Z,0.00
2023-05-15T00:43:20.751Z,0.00
2023-05-15T00:44:20.683Z,0.00
2023-05-15T00:45:20.684Z,0.00
2023-05-15T00:46:20.949Z,0.00
2023-05-15T00:47:20.670Z,0.00
2023-05-15T00:48:20.638Z,0.00
2023-05-15T00:49:20.628Z,0.00
2023-05-15T00:50:20.616Z,0.00
2023-05-15T00:51:20.703Z,0.00
2023-05-15T00:52:20.650Z,0.00
2023-05-15T00:53:20.588Z,0.00
2023-05-15T00:54:20.618Z,0.00
2023-05-15T00:55:20.597Z,0.00
2023-05-15T00:56:20.579Z,0.00
2023-05-15T00:57:20.613Z,0.00
2023-05-15T00:58:20.539Z,0.00
2023-05-15T00:59:20.528Z,0.00
2023-05-15T01:00:20.519Z,0.00
2023-05-15T01:01:20.554Z,0.00
2023-05-15T01:02:20.538Z,0.00
2023-05-15T01:03:20.589Z,0.00
2023-05-15T01:04:20.466Z,0.00
2023-05-15T01:05:20.488Z,0.00
2023-05-15T01:06:20.472Z,0.00
2023-05-15T01:07:20.448Z,0.00
2023-05-15T01:08:20.479Z,0.00
2023-05-15T01:09:20.414Z,0.00
2023-05-15T01:10:20.408Z,0.00
2023-05-15T01:11:20.487Z,0.00
2023-05-15T01:12:20.381Z,0.00
2023-05-15T01:13:20.636Z,0.00
2023-05-15T01:14:20.390Z,0.00
2023-05-15T01:15:20.359Z,0.00
2023-05-15T01:16:20.388Z,0.00
2023-05-15T01:17:20.333Z,0.00
2023-05-15T01:18:20.350Z,0.00
2023-05-15T01:19:20.751Z,0.00
2023-05-15T01:20:20.294Z,0.00
2023-05-15T01:21:20.302Z,0.00
2023-05-15T01:22:20.274Z,0.00
2023-05-15T01:23:21.137Z,0.00
2023-05-15T01:24:20.286Z,0.00
2023-05-15T01:25:20.317Z,0.00
2023-05-15T01:26:20.248Z,0.00
2023-05-15T01:27:20.247Z,0.00
2023-05-15T01:28:20.214Z,0.00
2023-05-15T01:29:20.236Z,0.00
2023-05-15T01:30:20.190Z,0.00
2023-05-15T01:31:20.234Z,0.00
2023-05-15T01:32:20.255Z,0.00
2023-05-15T01:33:20.156Z,0.00
2023-05-15T01:34:20.156Z,0.00
2023-05-15T01:35:20.149Z,0.00
2023-05-15T01:36:20.133Z,0.00
2023-05-15T01:37:20.135Z,0.00
2023-05-15T01:38:20.121Z,0.00
2023-05-15T01:39:20.094Z,0.00
2023-05-15T01:40:20.146Z,0.00
2023-05-15T01:41:20.123Z,0.00
2023-05-15T01:42:20.070Z,0.00
2023-05-15T01:43:20.071Z,0.00
2023-05-15T01:44:20.107Z,0.00
2023-05-15T01:45:20.036Z,0.00
2023-05-15T01:46:20.131Z,0.00
2023-05-15T01:47:20.023Z,0.00
2023-05-15T01:48:20.025Z,0.00
2023-05-15T01:49:19.994Z,0.00
2023-05-15T01:50:20.023Z,0.00
2023-05-15T01:51:20.022Z,0.00
2023-05-15T01:52:19.967Z,0.00
2023-05-15T01:53:19.965Z,0.00
2023-05-15T01:54:19.953Z,0.00
2023-05-15T01:55:19.943Z,0.00
2023-05-15T01:56:19.955Z,0.00
2023-05-15T01:57:19.913Z,0.00
2023-05-15T01:58:19.894Z,0.00
2023-05-15T01:59:19.963Z,0.00
2023-05-15T02:00:19.899Z,0.00
2023-05-15T02:01:20.677Z,0.00
2023-05-15T02:02:19.853Z,0.00
2023-05-15T02:03:19.979Z,0.00
2023-05-15T02:04:19.907Z,0.00
2023-05-15T02:05:19.866Z,0.00
2023-05-15T02:06:19.827Z,0.00
2023-05-15T02:07:19.809Z,0.00
2023-05-15T02:08:19.808Z,0.00
2023-05-15T02:09:19.775Z,0.00
2023-05-15T02:10:20.621Z,0.00
2023-05-15T02:11:19.754Z,0.00
2023-05-15T02:12:19.814Z,0.00
2023-05-15T02:13:19.767Z,0.00
2023-05-15T02:14:19.739Z,0.00
2023-05-15T02:15:19.737Z,0.00
2023-05-15T02:16:19.795Z,0.00
2023-05-15T02:17:19.717Z,0.00
2023-05-15T02:18:19.689Z,0.00
2023-05-15T02:19:19.691Z,0.00
2023-05-15T02:20:19.695Z,0.00
2023-05-15T02:21:19.657Z,0.00
2023-05-15T02:22:19.643Z,0.00
2023-05-15T02:23:19.673Z,0.00
2023-05-15T02:24:19.640Z,0.00
2023-05-15T02:25:19.641Z,0.00
2023-05-15T02:26:19.669Z,0.00
2023-05-15T02:27:19.586Z,0.00
2023-05-15T02:28:19.610Z,0.00
2023-05-15T02:29:19.569Z,0.00
2023-05-15T02:30:19.581Z,0.00
2023-05-15T02:31:19.625Z,0.00
2023-05-15T02:32:19.549Z,0.00
2023-05-15T02:33:19.522Z,0.00
2023-05-15T02:34:19.539Z,0.00
2023-05-15T02:35:19.499Z,0.00
2023-05-15T02:36:19.538Z,0.00
2023-05-15T02:37:19.522Z,0.00
2023-05-15T02:38:19.488Z,0.00
2023-05-15T02:39:19.460Z,0.00
2023-05-15T02:40:19.449Z,0.00
2023-05-15T02:41:19.443Z,0.00
2023-05-15T02:42:19.430Z,0.00
2023-05-15T02:43:19.432Z,0.00
2023-05-15T02:44:19.563Z,0.00
2023-05-15T02:45:19.681Z,0.00
2023-05-15T02:46:19.497Z,0.00
2023-05-15T02:47:19.384Z,0.00
2023-05-15T02:48:19.371Z,0.00
2023-05-15T02:49:19.372Z,0.00
2023-05-15T02:50:19.359Z,0.00
2023-05-15T02:51:19.377Z,0.00
2023-05-15T02:52:19.327Z,0.00
2023-05-15T02:53:19.318Z,0.00
2023-05-15T02:54:19.319Z,0.00
2023-05-15T02:55:19.294Z,0.00
2023-05-15T02:56:19.351Z,0.00
2023-05-15T02:57:19.269Z,0.00
2023-05-15T02:58:19.282Z,0.00
2023-05-15T02:59:19.244Z,0.00
2023-05-15T03:00:19.264Z,0.00
2023-05-15T03:01:19.296Z,0.00
2023-05-15T03:02:19.271Z,0.00
2023-05-15T03:03:19.250Z,0.00
2023-05-15T03:04:19.265Z,0.00
2023-05-15T03:05:19.184Z,0.00
2023-05-15T03:06:19.246Z,0.00
2023-05-15T03:07:19.163Z,0.00
2023-05-15T03:08:19.150Z,0.00
2023-05-15T03:09:19.136Z,0.00
2023-05-15T03:10:19.129Z,0.00
2023-05-15T03:11:19.156Z,0.00
2023-05-15T03:12:19.136Z,0.00
2023-05-15T03:13:19.635Z,0.00
2023-05-15T03:14:19.113Z,0.00
2023-05-15T03:15:19.085Z,0.00
2023-05-15T03:16:19.108Z,0.00
2023-05-15T03:17:19.057Z,0.00
2023-05-15T03:18:19.188Z,0.00
2023-05-15T03:19:19.090Z,0.00
2023-05-15T03:20:19.061Z,0.00
2023-05-15T03:21:19.011Z,0.00
2023-05-15T03:22:19.034Z,0.00
2023-05-15T03:23:19.026Z,0.00
2023-05-15T03:24:19.025Z,0.00
2023-05-15T03:25:18.981Z,0.00
2023-05-15T03:26:18.994Z,0.00
2023-05-15T03:27:18.959Z,0.00
2023-05-15T03:28:18.960Z,0.00
2023-05-15T03:29:18.934Z,0.00
2023-05-15T03:30:19.005Z,0.00
2023-05-15T03:31:19.068Z,0.00
2023-05-15T03:32:18.967Z,0.00
2023-05-15T03:33:18.916Z,0.00
2023-05-15T03:34:18.882Z,0.00
2023-05-15T03:35:18.868Z,0.00
2023-05-15T03:36:18.860Z,0.00
2023-05-15T03:37:18.863Z,0.00
2023-05-15T03:38:18.840Z,0.00
2023-05-15T03:39:18.854Z,0.00
2023-05-15T03:40:18.832Z,5.62
2023-05-15T03:41:18.806Z,5.62
2023-05-15T03:42:19.644Z,5.62
2023-05-15T03:43:18.818Z,5.62
2023-05-15T03:44:18.778Z,5.62
2023-05-15T03:45:26.615Z,5.62
2023-05-15T03:46:23.778Z,5.62
2023-05-15T03:47:19.171Z,5.62
2023-05-15T03:48:18.751Z,5.62
2023-05-15T03:49:18.716Z,11.25
2023-05-15T03:50:18.714Z,11.25
2023-05-15T03:51:18.704Z,11.25
2023-05-15T03:52:18.711Z,11.25
2023-05-15T03:53:18.710Z,11.25
2023-05-15T03:54:18.683Z,11.25
2023-05-15T03:55:18.668Z,11.25
2023-05-15T03:56:18.663Z,11.25
2023-05-15T03:57:18.642Z,11.25
2023-05-15T03:58:18.662Z,11.25
2023-05-15T03:59:18.615Z,11.25
2023-05-15T04:00:19.280Z,11.25
2023-05-15T04:01:18.607Z,11.25
2023-05-15T04:02:18.654Z,11.25
2023-05-15T04:03:18.773Z,11.25
2023-05-15T04:04:18.684Z,16.88
2023-05-15T04:05:18.689Z,16.88
2023-05-15T04:06:18.545Z,16.88
2023-05-15T04:07:18.536Z,22.50
2023-05-15T04:08:18.539Z,22.50
2023-05-15T04:09:18.512Z,22.50
2023-05-15T04:10:18.522Z,22.50
2023-05-15T04:11:18.491Z,22.50
2023-05-15T04:12:18.494Z,28.12
2023-05-15T04:13:18.504Z,28.12
2023-05-15T04:14:18.484Z,28.12
2023-05-15T04:15:18.464Z,28.12
2023-05-15T04:16:18.595Z,33.75
2023-05-15T04:17:18.499Z,33.75
2023-05-15T04:18:18.434Z,33.75
2023-05-15T04:19:18.436Z,28.12
2023-05-15T04:20:18.479Z,28.12
2023-05-15T04:21:18.382Z,28.12
2023-05-15T04:22:18.392Z,28.12
2023-05-15T04:23:18.399Z,28.12
2023-05-15T04:24:18.375Z,28.12
2023-05-15T04:25:18.382Z,28.12
2023-05-15T04:26:18.381Z,33.75
2023-05-15T04:27:18.329Z,33.75
2023-05-15T04:28:18.356Z,33.75
2023-05-15T04:29:18.360Z,39.38
2023-05-15T04:30:18.302Z,39.38
2023-05-15T04:31:18.322Z,39.38
2023-05-15T04:32:18.337Z,39.38
2023-05-15T04:33:18.280Z,39.38
2023-05-15T04:34:18.697Z,39.38
2023-05-15T04:35:18.242Z,39.38
2023-05-15T04:36:18.286Z,39.38
2023-05-15T04:37:18.237Z,45.00
2023-05-15T04:38:18.205Z,45.00
2023-05-15T04:39:18.195Z,50.62
2023-05-15T04:40:18.207Z,50.62
2023-05-15T04:41:18.172Z,50.62
2023-05-15T04:42:18.179Z,56.25
2023-05-15T04:43:18.151Z,56.25
2023-05-15T04:44:18.193Z,61.88
2023-05-15T04:45:18.130Z,61.88
2023-05-15T04:46:18.187Z,61.88
2023-05-15T04:47:18.150Z,61.88
2023-05-15T04:48:18.099Z,67.50
2023-05-15T04:49:18.106Z,67.50
2023-05-15T04:50:18.108Z,73.12
2023-05-15T04:51:18.136Z,73.12
2023-05-15T04:52:18.087Z,78.75
2023-05-15T04:53:18.093Z,78.75
2023-05-15T04:54:18.039Z,84.38
2023-05-15T04:55:18.051Z,84.38
2023-05-15T04:56:18.049Z,90.00
2023-05-15T04:57:18.011Z,90.00
2023-05-15T04:58:18.011Z,95.62
2023-05-15T04:59:18.260Z,95.62
2023-05-15T05:00:18.676Z,101.25
2023-05-15T05:01:18.024Z,101.25
2023-05-15T05:02:17.965Z,106.88
2023-05-15T05:03:18.049Z,112.50
2023-05-15T05:04:17.970Z,112.50
2023-05-15T05:05:17.977Z,118.12
2023-05-15T05:06:17.929Z,118.12
2023-05-15T05:07:17.914Z,118.12
2023-05-15T05:08:17.925Z,118.12
2023-05-15T05:09:18.682Z,123.75
2023-05-15T05:10:17.886Z,123.75
2023-05-15T05:11:17.923Z,123.75
2023-05-15T05:12:17.850Z,123.75
2023-05-15T05:13:17.842Z,123.75
2023-05-15T05:14:17.823Z,123.75
2023-05-15T05:15:17.818Z,123.75
2023-05-15T05:16:22.846Z,129.38
2023-05-15T05:17:17.831Z,129.38
2023-05-15T05:18:17.794Z,135.00
2023-05-15T05:19:17.875Z,140.62
2023-05-15T05:20:17.776Z,140.62
2023-05-15T05:21:17.766Z,146.25
2023-05-15T05:22:17.761Z,146.25
2023-05-15T05:23:17.730Z,146.25
2023-05-15T05:24:17.824Z,146.25
2023-05-15T05:25:17.715Z,151.88
2023-05-15T05:26:17.705Z,157.50
2023-05-15T05:27:17.747Z,163.12
2023-05-15T05:28:17.786Z,163.12
2023-05-15T05:29:17.679Z,163.12
2023-05-15T05:30:17.665Z,163.12
2023-05-15T05:31:17.730Z,163.12
2023-05-15T05:32:17.737Z,157.50
2023-05-15T05:33:17.622Z,157.50
2023-05-15T05:34:17.666Z,157.50
2023-05-15T05:35:17.622Z,163.12
2023-05-15T05:36:17.612Z,163.12
2023-05-15T05:37:17.582Z,168.75
2023-05-15T05:38:17.579Z,174.38
2023-05-15T05:39:17.680Z,185.62
2023-05-15T05:40:17.649Z,191.25
2023-05-15T05:41:17.579Z,202.50
2023-05-15T05:42:17.549Z,213.75
2023-05-15T05:43:17.523Z,225.00
2023-05-15T05:44:17.526Z,225.00
2023-05-15T05:45:17.500Z,225.00
2023-05-15T05:46:22.277Z,225.00
2023-05-15T05:47:17.559Z,225.00
2023-05-15T05:48:17.486Z,225.00
2023-05-15T05:49:17.477Z,230.62
2023-05-15T05:50:17.452Z,230.62
2023-05-15T05:51:17.471Z,230.62
2023-05-15T05:52:17.426Z,230.62
2023-05-15T05:53:17.711Z,225.00
2023-05-15T05:54:17.411Z,208.12
2023-05-15T05:55:17.385Z,196.88
2023-05-15T05:56:17.461Z,185.62
2023-05-15T05:57:17.379Z,180.00
2023-05-15T05:58:25.029Z,180.00
2023-05-15T05:59:18.362Z,180.00
2023-05-15T06:00:17.386Z,191.25
2023-05-15T06:01:17.369Z,196.88
2023-05-15T06:02:17.457Z,202.50
2023-05-15T06:03:17.428Z,219.38
2023-05-15T06:04:18.332Z,241.88
2023-05-15T06:05:17.308Z,258.75
2023-05-15T06:06:17.281Z,270.00
2023-05-15T06:07:17.267Z,275.62
2023-05-15T06:08:17.308Z,264.38
2023-05-15T06:09:17.249Z,258.75
2023-05-15T06:10:17.261Z,253.12
2023-05-15T06:11:17.248Z,258.75
2023-05-15T06:12:17.248Z,258.75
2023-05-15T06:13:17.202Z,253.12
2023-05-15T06:14:17.448Z,253.12
2023-05-15T06:15:17.177Z,247.50
2023-05-15T06:16:17.291Z,253.12
2023-05-15T06:17:17.216Z,253.12
2023-05-15T06:18:17.194Z,264.38
2023-05-15T06:19:17.337Z,275.62
2023-05-15T06:20:17.154Z,292.50
2023-05-15T06:21:17.122Z,286.88
2023-05-15T06:22:17.234Z,281.25
2023-05-15T06:23:17.116Z,275.62
2023-05-15T06:24:17.096Z,275.62
2023-05-15T06:25:17.130Z,281.25
2023-05-15T06:26:17.088Z,286.88
2023-05-15T06:27:17.048Z,292.50
2023-05-15T06:28:17.070Z,303.75
2023-05-15T06:29:17.028Z,309.38
2023-05-15T06:30:17.066Z,315.00
2023-05-15T06:31:17.197Z,326.25
2023-05-15T06:32:17.004Z,337.50
2023-05-15T06:33:17.112Z,365.62
2023-05-15T06:34:16.992Z,393.75
2023-05-15T06:35:16.984Z,421.88
2023-05-15T06:36:17.012Z,438.75
2023-05-15T06:37:16.973Z,455.62
2023-05-15T06:38:16.995Z,461.25
2023-05-15T06:39:16.926Z,461.25
2023-05-15T06:40:16.960Z,461.25
2023-05-15T06:41:16.901Z,455.62
2023-05-15T06:42:16.903Z,472.50
2023-05-15T06:43:16.886Z,489.38
2023-05-15T06:44:16.970Z,489.38
2023-05-15T06:45:16.902Z,483.75
2023-05-15T06:46:21.810Z,483.75
2023-05-15T06:47:16.858Z,483.75
2023-05-15T06:48:16.982Z,483.75
2023-05-15T06:49:16.844Z,483.75
2023-05-15T06:50:16.815Z,495.00
2023-05-15T06:51:16.808Z,517.50
2023-05-15T06:52:16.867Z,528.75
2023-05-15T06:53:16.780Z,551.25
2023-05-15T06:54:16.763Z,573.75
2023-05-15T06:55:16.782Z,573.75
2023-05-15T06:56:16.771Z,573.75
2023-05-15T06:57:16.742Z,573.75
2023-05-15T06:58:16.781Z,551.25
2023-05-15T06:59:16.731Z,523.12
2023-05-15T07:00:16.736Z,500.62
2023-05-15T07:01:17.239Z,489.38
2023-05-15T07:02:16.776Z,495.00
2023-05-15T07:03:16.706Z,500.62
2023-05-15T07:04:16.720Z,506.25
2023-05-15T07:05:16.710Z,506.25
2023-05-15T07:06:16.663Z,500.62
2023-05-15T07:07:16.640Z,483.75
2023-05-15T07:08:16.619Z,478.12
2023-05-15T07:09:16.629Z,489.38
2023-05-15T07:10:16.676Z,506.25
2023-05-15T07:11:16.668Z,517.50
2023-05-15T07:12:16.576Z,534.38
2023-05-15T07:13:16.580Z,551.25
2023-05-15T07:14:16.564Z,556.88
2023-05-15T07:15:16.556Z,562.50
2023-05-15T07:16:16.777Z,562.50
2023-05-15T07:17:16.693Z,568.12
2023-05-15T07:18:16.564Z,568.12
2023-05-15T07:19:16.709Z,579.38
2023-05-15T07:20:16.499Z,585.00
2023-05-15T07:21:16.494Z,590.62
2023-05-15T07:22:16.511Z,596.25
2023-05-15T07:23:16.463Z,596.25
2023-05-15T07:24:16.449Z,573.75
2023-05-15T07:25:17.127Z,573.75
2023-05-15T07:26:23.439Z,573.75
2023-05-15T07:27:17.459Z,579.38
2023-05-15T07:28:16.465Z,585.00
2023-05-15T07:29:16.418Z,590.62
2023-05-15T07:30:17.258Z,624.38
2023-05-15T07:31:16.420Z,663.75
2023-05-15T07:32:16.537Z,669.38
2023-05-15T07:33:16.399Z,669.38
2023-05-15T07:34:16.352Z,658.12
2023-05-15T07:35:16.350Z,585.00
2023-05-15T07:36:16.338Z,540.00
2023-05-15T07:37:17.133Z,585.00
2023-05-15T07:38:16.828Z,731.25
2023-05-15T07:39:16.303Z,916.88
2023-05-15T07:40:16.315Z,945.00
2023-05-15T07:41:16.276Z,1001.25
2023-05-15T07:42:16.274Z,956.25
2023-05-15T07:43:16.250Z,798.75
2023-05-15T07:44:16.271Z,725.62
2023-05-15T07:45:16.304Z,601.88
2023-05-15T07:46:16.342Z,528.75
2023-05-15T07:47:16.225Z,466.88
2023-05-15T07:48:16.286Z,438.75
2023-05-15T07:49:16.206Z,416.25
2023-05-15T07:50:16.182Z,410.62
2023-05-15T07:51:16.177Z,461.25
2023-05-15T07:52:16.157Z,489.38
2023-05-15T07:53:16.134Z,528.75
2023-05-15T07:54:16.143Z,573.75
2023-05-15T07:55:16.131Z,551.25
2023-05-15T07:56:16.128Z,573.75
2023-05-15T07:57:16.750Z,590.62
2023-05-15T07:58:16.094Z,579.38
2023-05-15T07:59:16.157Z,489.38
2023-05-15T08:00:16.081Z,455.62
2023-05-15T08:01:16.150Z,466.88
2023-05-15T08:02:16.082Z,388.12
2023-05-15T08:03:16.216Z,281.25
2023-05-15T08:04:16.180Z,202.50
2023-05-15T08:05:16.018Z,180.00
2023-05-15T08:06:16.052Z,185.62
2023-05-15T08:07:16.021Z,196.88
2023-05-15T08:08:15.973Z,202.50
2023-05-15T08:09:15.977Z,225.00
2023-05-15T08:10:15.967Z,241.88
2023-05-15T08:11:15.950Z,253.12
2023-05-15T08:12:15.984Z,281.25
2023-05-15T08:13:16.012Z,309.38
2023-05-15T08:14:15.946Z,337.50
2023-05-15T08:15:18.749Z,331.88
2023-05-15T08:16:16.022Z,343.12
2023-05-15T08:17:15.932Z,376.88
2023-05-15T08:18:15.891Z,399.38
2023-05-15T08:19:15.927Z,399.38
2023-05-15T08:20:16.022Z,382.50
2023-05-15T08:21:15.845Z,365.62
2023-05-15T08:22:15.826Z,348.75
2023-05-15T08:23:15.891Z,331.88
2023-05-15T08:24:15.830Z,337.50
2023-05-15T08:25:16.749Z,354.38
2023-05-15T08:26:15.796Z,360.00
2023-05-15T08:27:15.785Z,354.38
2023-05-15T08:28:15.769Z,348.75
2023-05-15T08:29:15.829Z,348.75
2023-05-15T08:30:15.763Z,354.38
2023-05-15T08:31:15.752Z,371.25
2023-05-15T08:32:15.723Z,388.12
2023-05-15T08:33:15.733Z,382.50
2023-05-15T08:34:15.708Z,354.38
2023-05-15T08:35:15.756Z,343.12
2023-05-15T08:36:15.881Z,376.88
2023-05-15T08:37:15.700Z,399.38
2023-05-15T08:38:15.671Z,427.50
2023-05-15T08:39:15.686Z,444.38
2023-05-15T08:40:15.667Z,427.50
2023-05-15T08:41:17.104Z,433.12
2023-05-15T08:42:15.630Z,405.00
2023-05-15T08:43:15.627Z,354.38
2023-05-15T08:44:15.616Z,298.12
2023-05-15T08:45:15.611Z,253.12
2023-05-15T08:46:23.192Z,241.88
2023-05-15T08:47:15.574Z,264.38
2023-05-15T08:48:15.602Z,286.88
2023-05-15T08:49:15.722Z,320.62
2023-05-15T08:50:15.568Z,360.00
2023-05-15T08:51:15.563Z,410.62
2023-05-15T08:52:15.537Z,444.38
2023-05-15T08:53:15.535Z,517.50
2023-05-15T08:54:15.501Z,641.25
2023-05-15T08:55:15.519Z,770.62
2023-05-15T08:56:15.527Z,826.88
2023-05-15T08:57:15.551Z,883.12
2023-05-15T08:58:15.459Z,1018.12
2023-05-15T08:59:15.455Z,1271.25
2023-05-15T09:00:15.425Z,691.88
2023-05-15T09:01:15.443Z,669.38
2023-05-15T09:02:15.431Z,708.75
2023-05-15T09:03:15.445Z,759.38
2023-05-15T09:04:15.425Z,821.25
2023-05-15T09:05:15.378Z,798.75
2023-05-15T09:06:15.433Z,720.00
2023-05-15T09:07:15.357Z,708.75
2023-05-15T09:08:15.425Z,720.00
2023-05-15T09:09:15.343Z,748.12
2023-05-15T09:10:15.344Z,781.88
2023-05-15T09:11:15.314Z,810.00
2023-05-15T09:12:15.309Z,855.00
2023-05-15T09:13:15.303Z,1012.50
2023-05-15T09:14:15.301Z,1440.00
2023-05-15T09:15:15.291Z,1760.62
2023-05-15T09:16:15.421Z,2295.00
2023-05-15T09:17:15.280Z,1321.88
2023-05-15T09:18:15.257Z,1001.25
2023-05-15T09:19:15.283Z,894.38
2023-05-15T09:20:15.212Z,826.88
2023-05-15T09:21:15.228Z,804.38
2023-05-15T09:22:15.218Z,742.50
2023-05-15T09:23:15.222Z,691.88
2023-05-15T09:24:15.193Z,646.88
2023-05-15T09:25:15.177Z,607.50
2023-05-15T09:26:15.155Z,573.75
2023-05-15T09:27:15.190Z,568.12
2023-05-15T09:28:15.163Z,579.38
2023-05-15T09:29:16.824Z,585.00
2023-05-15T09:30:15.112Z,596.25
2023-05-15T09:31:15.101Z,613.12
2023-05-15T09:32:15.163Z,624.38
2023-05-15T09:33:15.092Z,646.88
2023-05-15T09:34:15.068Z,697.50
2023-05-15T09:35:15.057Z,1355.62
2023-05-15T09:36:15.072Z,1243.12
2023-05-15T09:37:15.090Z,1642.50
2023-05-15T09:38:15.035Z,1445.62
2023-05-15T09:39:15.021Z,1265.62
2023-05-15T09:40:15.074Z,1181.25
2023-05-15T09:41:15.013Z,1929.38
2023-05-15T09:42:14.985Z,1766.25
2023-05-15T09:43:14.986Z,3026.25
2023-05-15T09:44:14.956Z,3324.38
2023-05-15T09:45:14.983Z,3414.38
2023-05-15T09:46:15.007Z,2143.12
2023-05-15T09:47:15.060Z,2896.88
2023-05-15T09:48:14.978Z,3369.38
2023-05-15T09:49:14.921Z,2441.25
2023-05-15T09:50:14.938Z,1867.50
2023-05-15T09:51:14.923Z,2604.38
2023-05-15T09:52:14.898Z,2030.62
2023-05-15T09:53:21.015Z,2587.50
2023-05-15T09:54:15.858Z,2160.00
2023-05-15T09:55:14.852Z,1687.50
2023-05-15T09:56:14.937Z,2221.88
2023-05-15T09:57:14.867Z,1563.75
2023-05-15T09:58:14.821Z,1389.38
2023-05-15T09:59:14.818Z,2176.88
2023-05-15T10:00:14.808Z,1417.50
2023-05-15T10:01:14.831Z,1254.38
2023-05-15T10:02:14.795Z,1316.25
2023-05-15T10:03:14.816Z,1383.75
2023-05-15T10:04:14.751Z,1299.38
2023-05-15T10:05:14.763Z,2418.75
2023-05-15T10:06:14.795Z,2013.75
2023-05-15T10:07:14.776Z,1771.88
2023-05-15T10:08:14.734Z,1400.62
2023-05-15T10:09:14.699Z,1558.12
2023-05-15T10:10:14.691Z,1693.12
2023-05-15T10:11:14.678Z,1293.75
2023-05-15T10:12:14.696Z,1271.25
2023-05-15T10:13:14.712Z,1468.12
2023-05-15T10:14:14.653Z,1704.38
2023-05-15T10:15:14.660Z,1541.25
2023-05-15T10:16:14.704Z,1361.25
2023-05-15T10:17:14.620Z,1456.88
2023-05-15T10:18:14.638Z,1130.62
2023-05-15T10:19:14.631Z,1254.38
2023-05-15T10:20:14.600Z,2880.00
2023-05-15T10:21:14.580Z,3853.12
2023-05-15T10:22:14.565Z,3448.12
2023-05-15T10:23:14.585Z,3678.75
2023-05-15T10:24:14.564Z,1822.50
2023-05-15T10:25:14.536Z,2863.12
2023-05-15T10:26:14.532Z,1423.12
2023-05-15T10:27:14.529Z,1552.50
2023-05-15T10:28:14.567Z,1698.75
2023-05-15T10:29:14.496Z,3436.88
2023-05-15T10:30:14.483Z,3436.88
2023-05-15T10:31:14.535Z,2559.38
2023-05-15T10:32:14.468Z,2683.12
2023-05-15T10:33:14.524Z,1693.12
2023-05-15T10:34:14.477Z,1310.62
2023-05-15T10:35:14.438Z,1113.75
2023-05-15T10:36:14.426Z,928.12
2023-05-15T10:37:14.428Z,922.50
2023-05-15T10:38:14.415Z,1046.25
2023-05-15T10:39:14.424Z,1012.50
2023-05-15T10:40:14.377Z,2649.38
2023-05-15T10:41:17.132Z,3622.50
2023-05-15T10:42:14.355Z,3633.75
2023-05-15T10:43:14.360Z,2238.75
2023-05-15T10:44:14.360Z,1260.00
2023-05-15T10:45:14.352Z,1096.88
2023-05-15T10:46:14.496Z,4308.75
2023-05-15T10:47:14.367Z,4455.00
2023-05-15T10:48:14.356Z,4432.50
2023-05-15T10:49:14.287Z,4471.88
2023-05-15T10:50:14.281Z,3549.38
2023-05-15T10:51:14.270Z,3121.88
2023-05-15T10:52:14.310Z,922.50
2023-05-15T10:53:14.251Z,871.88
2023-05-15T10:54:14.236Z,956.25
2023-05-15T10:55:14.279Z,4460.62
2023-05-15T10:56:14.286Z,2081.25
2023-05-15T10:57:14.198Z,652.50
2023-05-15T10:58:14.204Z,579.38
2023-05-15T10:59:14.185Z,500.62
2023-05-15T11:00:14.199Z,495.00
2023-05-15T11:01:14.204Z,562.50
2023-05-15T11:02:14.153Z,3566.25
2023-05-15T11:03:14.221Z,2975.62
2023-05-15T11:04:14.216Z,3819.38
2023-05-15T11:05:14.123Z,4083.75
2023-05-15T11:06:14.107Z,4151.25
2023-05-15T11:07:14.110Z,4010.62
2023-05-15T11:08:14.117Z,4021.88
2023-05-15T11:09:14.205Z,4123.12
2023-05-15T11:10:14.120Z,3971.25
2023-05-15T11:11:14.059Z,3976.88
2023-05-15T11:12:14.050Z,4246.88
2023-05-15T11:13:14.038Z,4325.62
2023-05-15T11:14:14.054Z,2491.88
2023-05-15T11:15:14.010Z,1310.62
2023-05-15T11:16:14.296Z,1732.50
2023-05-15T11:17:14.090Z,3819.38
2023-05-15T11:18:14.062Z,1074.38
2023-05-15T11:19:14.043Z,1108.12
2023-05-15T11:20:14.029Z,3740.62
2023-05-15T11:21:13.981Z,1856.25
2023-05-15T11:22:13.947Z,1462.50
2023-05-15T11:23:13.933Z,1788.75
2023-05-15T11:24:13.974Z,1586.25
2023-05-15T11:25:13.934Z,2385.00
2023-05-15T11:26:13.898Z,1800.00
2023-05-15T11:27:13.890Z,1586.25
2023-05-15T11:28:13.873Z,1378.12
2023-05-15T11:29:13.903Z,1321.88
2023-05-15T11:30:13.989Z,1153.12
2023-05-15T11:31:13.890Z,1057.50
2023-05-15T11:32:13.864Z,1057.50
2023-05-15T11:33:13.910Z,1046.25
2023-05-15T11:34:13.842Z,984.38
2023-05-15T11:35:13.849Z,838.12
2023-05-15T11:36:13.830Z,770.62
2023-05-15T11:37:13.878Z,742.50
2023-05-15T11:38:13.808Z,742.50
2023-05-15T11:39:13.825Z,804.38
2023-05-15T11:40:13.867Z,866.25
2023-05-15T11:41:13.786Z,905.62
2023-05-15T11:42:13.752Z,950.62
2023-05-15T11:43:13.727Z,984.38
2023-05-15T11:44:13.713Z,1018.12
2023-05-15T11:45:13.739Z,984.38
2023-05-15T11:46:13.914Z,939.38
2023-05-15T11:47:13.706Z,905.62
2023-05-15T11:48:13.790Z,866.25
2023-05-15T11:49:13.696Z,838.12
2023-05-15T11:50:13.656Z,810.00
2023-05-15T11:51:13.630Z,781.88
2023-05-15T11:52:13.631Z,720.00
2023-05-15T11:53:13.627Z,618.75
2023-05-15T11:54:13.674Z,495.00
2023-05-15T11:55:13.613Z,331.88
2023-05-15T11:56:13.602Z,247.50
2023-05-15T11:57:13.579Z,208.12
2023-05-15T11:58:13.653Z,191.25
2023-05-15T11:59:13.560Z,185.62
2023-05-15T12:00:13.570Z,185.62
2023-05-15T12:01:13.533Z,185.62
2023-05-15T12:02:13.564Z,191.25
2023-05-15T12:03:13.628Z,196.88
2023-05-15T12:04:13.770Z,202.50
2023-05-15T12:05:13.529Z,213.75
2023-05-15T12:06:13.501Z,225.00
2023-05-15T12:07:13.912Z,236.25
2023-05-15T12:08:13.467Z,241.88
2023-05-15T12:09:13.454Z,253.12
2023-05-15T12:10:13.447Z,253.12
2023-05-15T12:11:13.453Z,258.75
2023-05-15T12:12:13.451Z,264.38
2023-05-15T12:13:13.412Z,264.38
2023-05-15T12:14:13.400Z,275.62
2023-05-15T12:15:13.412Z,281.25
2023-05-15T12:16:13.523Z,292.50
2023-05-15T12:17:13.377Z,309.38
2023-05-15T12:18:13.359Z,326.25
2023-05-15T12:19:13.484Z,360.00
2023-05-15T12:20:13.362Z,399.38
2023-05-15T12:21:13.340Z,461.25
2023-05-15T12:22:13.315Z,523.12
2023-05-15T12:23:13.331Z,618.75
2023-05-15T12:24:13.316Z,680.62
2023-05-15T12:25:13.300Z,759.38
2023-05-15T12:26:13.312Z,866.25
2023-05-15T12:27:13.266Z,1141.88
2023-05-15T12:28:13.256Z,1299.38
2023-05-15T12:29:13.276Z,1485.00
2023-05-15T12:30:13.234Z,1625.62
2023-05-15T12:31:13.260Z,1732.50
2023-05-15T12:32:13.266Z,1850.62
2023-05-15T12:33:13.220Z,1884.38
2023-05-15T12:34:13.193Z,2182.50
2023-05-15T12:35:13.178Z,2160.00
2023-05-15T12:36:13.437Z,2396.25
2023-05-15T12:37:13.194Z,2475.00
2023-05-15T12:38:13.170Z,2480.62
2023-05-15T12:39:13.152Z,2503.12
2023-05-15T12:40:13.128Z,2548.12